Time;durP1;ratioP1;P1;durP2;ratioP2;P2;SDS_P1;SDS_P2;PMS_P1;PMS_P2;Temp;Humidity;BMP_temperature;BMP_pressure;BME280_temperature;BME280_humidity;BME280_pressure;Samples;Min_cycle;Max_cycle;Signal;HPM_P1;HPM_P2
2021/11/17 02:28:07;;;;;;;12.20;8.30;;;7.10;99.90;;;;;;4995898;28;20483;-68
2021/11/17 02:30:43;;;;;;;11.53;8.37;;;7.00;99.90;;;;;;4995903;28;20407;-68
2021/11/17 02:33:30;;;;;;;11.53;7.67;;;7.00;99.90;;;;;;4995435;28;20407;-69
2021/11/17 02:36:21;;;;;;;14.07;10.17;;;7.10;99.90;;;;;;4994960;28;20486;-69
2021/11/17 02:39:03;;;;;;;10.80;7.87;;;7.10;99.90;;;;;;4994061;28;20507;-69
2021/11/17 02:41:47;;;;;;;11.73;8.47;;;7.10;99.90;;;;;;4995469;28;20451;-69
2021/11/17 02:44:32;;;;;;;14.37;8.37;;;7.20;99.90;;;;;;4994968;28;20888;-69
2021/11/17 02:47:25;;;;;;;15.60;9.83;;;7.20;99.90;;;;;;5018010;28;20438;-68
2021/11/17 02:49:58;;;;;;;13.17;9.47;;;7.20;99.90;;;;;;5006309;28;20514;-69
2021/11/17 02:52:35;;;;;;;15.33;9.40;;;7.20;99.90;;;;;;5012085;28;20423;-69
2021/11/17 02:55:17;;;;;;;15.83;10.03;;;7.30;99.90;;;;;;5012066;28;20457;-69
2021/11/17 02:57:42;;;;;;;16.07;10.50;;;7.20;99.90;;;;;;5014290;28;20407;-69
2021/11/17 03:00:17;;;;;;;18.90;11.60;;;7.00;99.90;;;;;;5015185;28;20808;-68
2021/11/17 03:02:46;;;;;;;15.77;11.67;;;7.00;99.90;;;;;;5012875;28;20175;-68
2021/11/17 03:05:14;;;;;;;18.97;12.53;;;6.90;99.90;;;;;;5027884;28;20537;-70
2021/11/17 03:08:05;;;;;;;19.07;12.70;;;6.80;99.90;;;;;;5028937;28;20450;-69
2021/11/17 03:10:41;;;;;;;17.20;12.23;;;6.90;99.90;;;;;;5013987;28;20981;-69
2021/11/17 03:13:28;;;;;;;20.83;12.70;;;6.90;99.90;;;;;;5012165;28;20422;-69
2021/11/17 03:16:38;;;;;;;18.67;13.07;;;6.90;99.90;;;;;;5008379;28;20436;-69
2021/11/17 03:19:41;;;;;;;22.60;13.47;;;7.00;99.90;;;;;;4978857;28;20523;-69
2021/11/17 03:22:13;;;;;;;21.07;12.93;;;6.80;99.90;;;;;;4977455;28;20443;-69
2021/11/17 03:25:08;;;;;;;23.50;14.43;;;6.80;99.90;;;;;;4978794;28;20486;-69
2021/11/17 03:27:56;;;;;;;19.50;13.30;;;6.80;99.90;;;;;;4983683;28;20952;-69
2021/11/17 03:30:41;;;;;;;22.87;14.13;;;6.80;99.90;;;;;;4980529;28;20432;-69
2021/11/17 03:33:13;;;;;;;24.03;13.50;;;6.80;99.90;;;;;;4975742;28;20503;-68
2021/11/17 03:35:47;;;;;;;22.13;13.20;;;6.70;99.90;;;;;;4976436;28;20444;-69
2021/11/17 03:38:41;;;;;;;23.70;13.50;;;6.80;99.90;;;;;;4979506;28;20817;-69
2021/11/17 03:41:12;;;;;;;24.33;15.40;;;6.90;99.90;;;;;;4985715;28;20502;-70
2021/11/17 03:43:43;;;;;;;19.73;13.77;;;6.90;99.90;;;;;;4991455;28;20432;-69
2021/11/17 03:46:37;;;;;;;24.20;14.10;;;6.90;99.90;;;;;;4949628;28;20532;-69
2021/11/17 03:49:31;;;;;;;23.40;14.40;;;6.90;99.90;;;;;;4966305;28;20795;-70
2021/11/17 03:52:14;;;;;;;20.87;14.20;;;6.80;99.90;;;;;;4991785;28;20506;-70
2021/11/17 03:54:46;;;;;;;22.57;13.87;;;6.90;99.90;;;;;;5003332;28;20486;-69
2021/11/17 03:57:27;;;;;;;19.93;14.20;;;6.80;99.90;;;;;;5005128;28;20441;-70
2021/11/17 04:00:07;;;;;;;22.90;13.47;;;6.80;99.90;;;;;;5011945;28;20468;-71
2021/11/17 04:02:57;;;;;;;21.90;14.40;;;6.90;99.90;;;;;;5011888;28;20903;-70
2021/11/17 04:05:44;;;;;;;23.37;15.23;;;7.00;99.90;;;;;;5012142;28;20521;-69
2021/11/17 04:08:35;;;;;;;24.27;14.83;;;7.10;99.90;;;;;;5011786;28;20438;-69
2021/11/17 04:11:37;;;;;;;23.07;14.47;;;7.10;99.90;;;;;;5013225;28;20406;-69
2021/11/17 04:14:21;;;;;;;21.77;14.13;;;7.10;99.90;;;;;;5012200;28;20422;-69
2021/11/17 04:16:59;;;;;;;21.97;14.37;;;7.00;99.90;;;;;;5010075;28;20433;-69
2021/11/17 04:19:48;;;;;;;22.40;14.17;;;6.90;99.90;;;;;;4991997;28;20395;-70
2021/11/17 04:22:35;;;;;;;21.93;14.17;;;6.90;99.90;;;;;;4992134;28;21118;-69
2021/11/17 04:25:01;;;;;;;21.10;13.93;;;6.80;99.90;;;;;;5022541;28;20435;-70
2021/11/17 04:27:33;;;;;;;21.87;14.37;;;6.90;99.90;;;;;;5013939;28;20791;-69
2021/11/17 04:30:08;;;;;;;25.53;15.10;;;6.90;99.90;;;;;;5012826;28;20163;-70
2021/11/17 04:32:48;;;;;;;22.03;13.53;;;7.00;99.90;;;;;;5013742;28;20402;-69
2021/11/17 04:35:42;;;;;;;22.13;13.00;;;7.00;99.90;;;;;;5013037;28;20434;-69
2021/11/17 04:38:19;;;;;;;21.73;13.03;;;7.00;99.90;;;;;;5013291;28;20435;-69
2021/11/17 04:41:03;;;;;;;19.60;12.67;;;7.00;99.90;;;;;;5013717;28;20449;-69
2021/11/17 04:43:35;;;;;;;20.80;13.13;;;6.90;99.90;;;;;;4993339;28;20409;-69
2021/11/17 04:46:32;;;;;;;23.13;13.17;;;7.00;99.90;;;;;;4993030;28;20427;-68
2021/11/17 04:49:28;;;;;;;21.60;12.90;;;7.00;99.90;;;;;;4974079;28;20552;-71
2021/11/17 04:52:25;;;;;;;20.70;12.43;;;6.90;99.90;;;;;;4995302;28;20459;-70
2021/11/17 04:55:10;;;;;;;22.10;14.23;;;7.00;99.90;;;;;;4997210;28;20506;-69
2021/11/17 04:57:58;;;;;;;20.73;14.63;;;7.00;99.90;;;;;;5031370;23;20508;-68
2021/11/17 05:00:35;;;;;;;20.10;13.33;;;7.10;99.90;;;;;;5008120;28;20470;-69
2021/11/17 05:03:07;;;;;;;21.87;13.40;;;7.10;99.90;;;;;;5011202;28;20419;-69
2021/11/17 05:05:58;;;;;;;28.07;16.27;;;7.10;99.90;;;;;;5011091;28;20421;-69
2021/11/17 05:08:38;;;;;;;21.00;12.90;;;7.10;99.90;;;;;;4992109;28;20404;-69
2021/11/17 05:11:34;;;;;;;23.63;14.50;;;7.00;99.90;;;;;;4992286;28;20411;-70
2021/11/17 05:14:15;;;;;;;23.50;14.83;;;7.00;99.90;;;;;;4987101;28;20474;-69
2021/11/17 05:16:58;;;;;;;25.80;15.23;;;6.90;99.90;;;;;;4972478;28;20853;-68
2021/11/17 05:19:35;;;;;;;32.20;16.77;;;6.80;99.90;;;;;;4972669;28;20419;-70
2021/11/17 05:22:27;;;;;;;23.77;14.73;;;6.70;99.90;;;;;;4988976;28;20518;-69
2021/11/17 05:25:20;;;;;;;29.03;16.00;;;6.70;99.90;;;;;;4987492;28;20431;-69
2021/11/17 05:28:27;;;;;;;26.93;16.13;;;6.80;99.90;;;;;;4995877;28;20427;-69
2021/11/17 05:31:25;;;;;;;31.50;17.97;;;6.90;99.90;;;;;;4996072;28;20901;-69
2021/11/17 05:34:05;;;;;;;26.97;17.03;;;6.90;99.90;;;;;;4995724;28;20427;-69
2021/11/17 05:36:46;;;;;;;26.20;15.77;;;6.90;99.90;;;;;;4976153;28;20428;-69
2021/11/17 05:39:30;;;;;;;27.73;16.13;;;7.00;99.90;;;;;;4975325;28;20428;-69
2021/11/17 05:42:09;;;;;;;27.53;16.00;;;6.90;99.90;;;;;;4976327;28;20408;-69
2021/11/17 05:45:05;;;;;;;27.03;15.93;;;6.90;99.90;;;;;;4977594;28;20397;-70
2021/11/17 05:47:52;;;;;;;28.20;17.43;;;7.00;99.90;;;;;;4991076;28;20467;-70
2021/11/17 05:50:32;;;;;;;26.77;15.43;;;7.00;99.90;;;;;;4990296;28;20497;-70
2021/11/17 05:53:43;;;;;;;29.20;16.13;;;7.00;99.90;;;;;;4989711;28;21097;-70
2021/11/17 05:56:16;;;;;;;25.37;14.90;;;7.00;99.90;;;;;;4965234;28;20544;-70
2021/11/17 05:58:57;;;;;;;26.50;15.77;;;7.00;99.90;;;;;;4954643;29;20615;-71
2021/11/17 06:01:46;;;;;;;28.63;15.40;;;7.00;99.90;;;;;;4954211;29;20461;-70
2021/11/17 06:04:12;;;;;;;28.70;15.70;;;7.00;99.90;;;;;;4953979;29;20492;-71
2021/11/17 06:06:39;;;;;;;27.73;16.87;;;7.10;99.90;;;;;;4954881;28;20532;-70
2021/11/17 06:09:05;;;;;;;30.70;17.30;;;7.10;99.90;;;;;;4954260;29;20208;-69
2021/11/17 06:11:51;;;;;;;29.63;16.50;;;7.10;99.90;;;;;;4962765;28;20440;-69
2021/11/17 06:14:27;;;;;;;24.70;14.37;;;7.10;99.90;;;;;;4972697;28;20797;-70
2021/11/17 06:16:57;;;;;;;29.77;16.00;;;7.10;99.90;;;;;;4969616;28;20453;-69
2021/11/17 06:19:25;;;;;;;28.77;17.50;;;7.10;99.90;;;;;;4953931;29;20413;-70
2021/11/17 06:21:52;;;;;;;27.13;16.20;;;7.00;99.90;;;;;;4953686;29;20519;-69
2021/11/17 06:24:20;;;;;;;27.43;15.83;;;7.10;99.90;;;;;;4953709;29;20786;-70
2021/11/17 06:26:47;;;;;;;25.93;15.60;;;7.20;99.90;;;;;;4962801;28;20429;-70
2021/11/17 06:29:19;;;;;;;28.73;15.60;;;7.20;99.90;;;;;;4992781;28;20455;-70
2021/11/17 06:31:45;;;;;;;22.70;15.10;;;7.20;99.90;;;;;;4994647;28;20943;-71
2021/11/17 06:34:24;;;;;;;26.90;14.63;;;7.30;99.90;;;;;;4994622;28;20412;-70
2021/11/17 06:36:50;;;;;;;24.10;15.20;;;7.30;99.90;;;;;;4993168;28;20428;-69
2021/11/17 06:39:15;;;;;;;24.80;15.53;;;7.30;99.90;;;;;;4994492;28;20431;-69
2021/11/17 06:41:41;;;;;;;23.80;14.57;;;7.20;99.90;;;;;;4993868;28;20287;-69
2021/11/17 06:44:06;;;;;;;25.07;14.70;;;7.30;99.90;;;;;;4994316;28;20165;-69
2021/11/17 06:46:32;;;;;;;23.60;14.37;;;7.30;99.90;;;;;;4993629;28;20180;-70
2021/11/17 06:48:57;;;;;;;25.10;15.03;;;7.40;99.90;;;;;;4994406;28;20169;-70
2021/11/17 06:51:23;;;;;;;23.60;13.93;;;7.40;99.90;;;;;;4993691;28;20179;-71
2021/11/17 06:53:48;;;;;;;20.63;13.43;;;7.40;99.90;;;;;;4994214;28;20185;-70
2021/11/17 06:56:17;;;;;;;21.23;14.53;;;7.40;99.90;;;;;;4993514;28;20747;-70
2021/11/17 06:58:42;;;;;;;22.93;14.47;;;7.40;99.90;;;;;;4994604;28;20237;-70
2021/11/17 07:01:08;;;;;;;25.80;15.10;;;7.40;99.90;;;;;;4992622;28;20456;-70
2021/11/17 07:03:33;;;;;;;21.57;14.53;;;7.40;99.90;;;;;;4993696;28;20180;-71
2021/11/17 07:05:59;;;;;;;23.00;14.10;;;7.50;99.90;;;;;;4993741;28;20549;-71
2021/11/17 07:08:24;;;;;;;22.50;13.60;;;7.50;99.90;;;;;;4994119;28;20177;-70
2021/11/17 07:10:50;;;;;;;24.80;14.97;;;7.50;99.90;;;;;;4993782;28;20181;-71
2021/11/17 07:13:16;;;;;;;23.00;15.07;;;7.60;99.90;;;;;;4993655;28;20233;-70
2021/11/17 07:15:42;;;;;;;22.53;14.60;;;7.60;99.90;;;;;;4993167;28;20490;-71
2021/11/17 07:18:08;;;;;;;21.87;14.57;;;7.60;99.90;;;;;;4994311;28;20875;-71
2021/11/17 07:20:36;;;;;;;23.00;14.10;;;7.60;99.90;;;;;;4993505;28;20490;-70
2021/11/17 07:23:03;;;;;;;22.87;15.50;;;7.60;99.90;;;;;;4993806;28;20201;-70
2021/11/17 07:25:28;;;;;;;24.60;17.30;;;7.70;99.90;;;;;;4992968;28;20485;-71
2021/11/17 07:27:56;;;;;;;29.30;16.37;;;7.70;99.90;;;;;;4993264;28;20471;-70
2021/11/17 07:30:25;;;;;;;28.30;17.10;;;7.50;99.90;;;;;;4993349;28;20631;-70
2021/11/17 07:32:51;;;;;;;26.03;15.70;;;7.50;99.90;;;;;;4993198;28;20427;-70
2021/11/17 07:35:18;;;;;;;26.80;15.97;;;7.50;99.90;;;;;;4992667;28;20423;-70
2021/11/17 07:37:44;;;;;;;29.03;16.20;;;7.50;99.90;;;;;;4991524;28;20530;-71
2021/11/17 07:40:11;;;;;;;26.77;17.60;;;7.50;99.90;;;;;;4993056;28;20583;-70
2021/11/17 07:42:38;;;;;;;24.63;16.20;;;7.60;99.90;;;;;;4992479;28;21154;-70
2021/11/17 07:45:05;;;;;;;25.30;16.03;;;7.70;99.90;;;;;;4991711;28;20426;-69
2021/11/17 07:47:31;;;;;;;25.30;16.20;;;7.80;99.90;;;;;;4992175;28;20850;-71
2021/11/17 07:49:56;;;;;;;22.43;15.43;;;7.80;99.90;;;;;;4991424;28;20439;-70
2021/11/17 07:52:22;;;;;;;24.50;15.23;;;7.90;99.90;;;;;;4992652;28;20188;-71
2021/11/17 07:54:47;;;;;;;21.83;15.03;;;7.90;99.90;;;;;;4992723;28;20171;-70
2021/11/17 07:57:13;;;;;;;23.80;15.50;;;8.00;99.90;;;;;;4986204;28;20223;-71
2021/11/17 07:59:40;;;;;;;25.77;16.67;;;7.90;99.90;;;;;;4987824;28;20185;-71
2021/11/17 08:02:12;;;;;;;26.53;16.13;;;7.90;99.90;;;;;;4987452;28;20180;-69
2021/11/17 08:04:38;;;;;;;23.93;15.80;;;7.80;99.90;;;;;;4999659;28;20409;-70
2021/11/17 08:07:09;;;;;;;22.47;15.10;;;7.80;99.90;;;;;;4997437;28;20498;-71
2021/11/17 08:09:35;;;;;;;25.00;15.37;;;7.80;99.90;;;;;;5005577;28;20399;-70
2021/11/17 08:12:01;;;;;;;20.00;13.43;;;7.90;99.90;;;;;;4988640;28;20876;-71
2021/11/17 08:14:27;;;;;;;20.77;13.83;;;8.00;99.90;;;;;;4987613;28;20247;-70
2021/11/17 08:16:52;;;;;;;22.67;13.90;;;8.00;99.90;;;;;;4988938;28;20455;-69
2021/11/17 08:19:18;;;;;;;17.70;13.00;;;8.00;99.90;;;;;;4973660;28;20173;-70
2021/11/17 08:21:43;;;;;;;18.50;13.20;;;7.90;99.90;;;;;;4989305;28;20208;-71
2021/11/17 08:24:09;;;;;;;19.27;13.37;;;8.00;99.90;;;;;;4989524;28;20606;-71
2021/11/17 08:26:35;;;;;;;21.10;12.87;;;8.10;99.90;;;;;;5001989;28;20580;-69
2021/11/17 08:29:01;;;;;;;18.33;12.33;;;8.00;99.90;;;;;;4998910;28;20176;-68
2021/11/17 08:31:26;;;;;;;20.00;13.20;;;8.10;99.90;;;;;;4991115;28;20534;-70
2021/11/17 08:33:54;;;;;;;19.70;12.47;;;8.10;99.90;;;;;;4995734;28;20230;-69
2021/11/17 08:36:20;;;;;;;17.97;12.90;;;8.10;99.90;;;;;;4988706;28;20574;-69
2021/11/17 08:38:50;;;;;;;19.00;12.57;;;8.10;99.90;;;;;;4988712;28;20518;-69
2021/11/17 08:41:16;;;;;;;19.73;13.63;;;8.10;99.90;;;;;;4991214;28;20862;-69
2021/11/17 08:43:42;;;;;;;19.60;12.70;;;8.20;99.90;;;;;;4988961;28;20439;-70
2021/11/17 08:46:09;;;;;;;19.83;13.20;;;8.20;99.90;;;;;;4988863;28;20461;-71
2021/11/17 08:48:37;;;;;;;17.47;12.60;;;8.20;99.90;;;;;;4989234;28;20298;-70
2021/11/17 08:51:05;;;;;;;19.13;12.60;;;8.10;99.90;;;;;;4988563;28;20428;-70
2021/11/17 08:53:35;;;;;;;23.40;13.10;;;8.20;99.90;;;;;;4988985;28;20482;-69
2021/11/17 08:56:03;;;;;;;17.70;12.27;;;8.20;99.90;;;;;;4989105;28;20530;-70
2021/11/17 08:58:29;;;;;;;21.10;13.43;;;8.30;99.90;;;;;;4993772;28;20993;-70
2021/11/17 09:00:55;;;;;;;20.33;12.80;;;8.20;99.90;;;;;;4995863;28;20450;-70
2021/11/17 09:03:22;;;;;;;17.00;11.97;;;8.10;99.90;;;;;;4989584;28;20167;-70
2021/11/17 09:05:51;;;;;;;17.30;13.57;;;8.10;99.90;;;;;;4990521;28;20407;-70
2021/11/17 09:08:17;;;;;;;17.03;11.77;;;8.10;99.90;;;;;;4990721;28;20422;-70
2021/11/17 09:10:47;;;;;;;20.13;13.30;;;8.10;99.90;;;;;;5011072;28;20474;-69
2021/11/17 09:13:14;;;;;;;15.47;11.23;;;8.10;99.90;;;;;;5007448;28;20439;-69
2021/11/17 09:15:42;;;;;;;18.37;12.47;;;8.10;99.90;;;;;;5003790;28;20422;-70
2021/11/17 09:18:09;;;;;;;20.70;13.40;;;8.10;99.90;;;;;;5002049;28;20413;-70
2021/11/17 09:20:36;;;;;;;20.70;12.30;;;8.20;99.90;;;;;;4992365;28;20469;-70
2021/11/17 09:23:03;;;;;;;20.30;13.07;;;8.30;99.90;;;;;;4988798;28;20444;-70
2021/11/17 09:25:30;;;;;;;16.20;11.57;;;8.30;99.90;;;;;;4987854;28;20473;-70
2021/11/17 09:27:56;;;;;;;15.03;11.47;;;8.30;99.90;;;;;;4988624;28;20432;-70
2021/11/17 09:30:25;;;;;;;19.50;12.07;;;8.30;99.90;;;;;;4988794;28;20417;-71
2021/11/17 09:32:54;;;;;;;17.50;10.90;;;8.30;99.90;;;;;;4994311;28;20813;-71
2021/11/17 09:35:20;;;;;;;18.53;11.53;;;8.40;99.90;;;;;;4990397;28;20532;-71
2021/11/17 09:37:49;;;;;;;18.33;11.03;;;8.20;99.90;;;;;;4984515;28;21160;-71
2021/11/17 09:40:20;;;;;;;19.23;13.30;;;8.20;99.90;;;;;;4976621;28;20459;-71
2021/11/17 09:42:46;;;;;;;16.27;10.97;;;8.10;99.90;;;;;;4987968;28;20500;-69
2021/11/17 09:45:12;;;;;;;20.87;11.60;;;8.10;99.90;;;;;;4982315;28;20520;-71
2021/11/17 09:47:42;;;;;;;17.63;11.57;;;8.00;99.90;;;;;;4980761;28;20255;-68
2021/11/17 09:50:10;;;;;;;14.13;10.97;;;8.20;99.90;;;;;;4989038;28;20412;-68
2021/11/17 09:52:44;;;;;;;18.57;11.50;;;8.30;99.90;;;;;;4988142;28;20431;-71
2021/11/17 09:55:16;;;;;;;15.80;10.23;;;8.30;99.90;;;;;;4987706;28;20476;-69
2021/11/17 09:57:50;;;;;;;16.43;11.60;;;8.40;99.90;;;;;;4987714;28;20454;-70
2021/11/17 10:00:35;;;;;;;18.57;11.87;;;8.40;99.90;;;;;;4988195;28;20698;-71
2021/11/17 10:03:15;;;;;;;16.27;11.00;;;8.40;99.90;;;;;;4988188;28;20420;-72
2021/11/17 10:11:49;;;;;;;18.90;10.93;;;8.60;99.90;;;;;;4988328;28;20426;-70
2021/11/17 10:14:33;;;;;;;14.53;10.70;;;8.50;99.90;;;;;;4991563;28;20419;-70
2021/11/17 10:17:00;;;;;;;16.33;10.33;;;8.60;99.90;;;;;;4990755;28;20454;-69
2021/11/17 10:19:33;;;;;;;15.40;11.20;;;8.60;99.90;;;;;;4994740;28;20415;-71
2021/11/17 10:22:01;;;;;;;17.13;11.80;;;8.60;99.90;;;;;;4997862;28;20780;-71
2021/11/17 10:24:45;;;;;;;15.67;11.17;;;8.60;99.90;;;;;;4999232;28;20411;-70
2021/11/17 10:27:14;;;;;;;17.33;11.23;;;8.60;99.90;;;;;;4995139;28;20435;-72
2021/11/17 10:29:59;;;;;;;15.53;10.40;;;8.60;99.90;;;;;;4992691;28;20544;-71
2021/11/17 10:32:40;;;;;;;15.33;10.67;;;8.60;99.90;;;;;;5001601;28;20928;-70
2021/11/17 10:35:19;;;;;;;17.93;11.50;;;8.50;99.90;;;;;;4995724;28;20415;-73
2021/11/17 10:38:10;;;;;;;18.77;11.77;;;8.40;99.90;;;;;;4991376;28;20454;-70
2021/11/17 10:41:03;;;;;;;14.93;9.87;;;8.50;99.90;;;;;;4982691;28;20553;-70
2021/11/17 10:43:35;;;;;;;15.87;10.67;;;8.40;99.90;;;;;;5006710;28;21194;-71
2021/11/17 10:46:03;;;;;;;14.07;9.70;;;8.50;99.90;;;;;;4991040;28;20435;-70
2021/11/17 10:48:39;;;;;;;13.73;10.20;;;8.60;99.90;;;;;;4991718;28;21191;-70
2021/11/17 10:51:16;;;;;;;15.80;9.77;;;8.60;99.90;;;;;;4989960;28;21230;-70
2021/11/17 10:53:47;;;;;;;17.77;11.23;;;8.70;99.90;;;;;;4991176;28;20424;-70
2021/11/17 10:56:16;;;;;;;16.33;10.77;;;8.80;99.90;;;;;;4991145;28;20546;-69
2021/11/17 10:58:45;;;;;;;17.20;11.10;;;8.70;99.90;;;;;;5038531;22;20996;-70
2021/11/17 11:01:43;;;;;;;17.37;11.80;;;8.70;99.90;;;;;;5030848;28;20461;-70
2021/11/17 11:04:16;;;;;;;18.83;11.90;;;8.80;99.90;;;;;;4968145;28;20429;-70
2021/11/17 11:07:24;;;;;;;18.40;11.30;;;8.60;99.90;;;;;;4950025;28;20420;-70
2021/11/17 11:09:57;;;;;;;18.77;11.43;;;8.50;99.90;;;;;;4856461;29;21030;-71
2021/11/17 11:12:26;;;;;;;21.23;12.63;;;8.50;99.90;;;;;;4848144;29;20424;-70
2021/11/17 11:15:10;;;;;;;16.53;11.20;;;8.50;99.90;;;;;;4856639;29;20827;-70
2021/11/17 11:17:43;;;;;;;15.07;10.37;;;8.60;99.90;;;;;;4855185;29;20455;-70
2021/11/17 11:20:19;;;;;;;15.57;10.50;;;8.70;99.90;;;;;;4855516;29;20509;-70
2021/11/17 11:23:03;;;;;;;16.57;11.60;;;8.70;99.90;;;;;;4857355;29;21136;-70
2021/11/17 11:25:50;;;;;;;18.27;11.50;;;8.70;99.90;;;;;;4868698;29;20464;-69
2021/11/17 11:28:21;;;;;;;19.60;12.37;;;8.60;99.90;;;;;;4853722;29;20434;-68
2021/11/17 11:31:12;;;;;;;22.23;12.70;;;8.60;99.90;;;;;;4853351;29;20435;-69
2021/11/17 11:33:48;;;;;;;22.13;13.53;;;8.70;99.90;;;;;;4861912;29;21215;-69
2021/11/17 11:36:14;;;;;;;18.20;12.37;;;8.60;99.90;;;;;;4855706;29;20582;-69
2021/11/17 11:39:11;;;;;;;22.37;12.93;;;8.50;99.90;;;;;;4853798;29;20524;-70
2021/11/17 11:42:20;;;;;;;17.57;12.40;;;8.60;99.90;;;;;;4923450;29;20215;-69
2021/11/17 11:44:49;;;;;;;24.30;12.60;;;8.70;99.90;;;;;;4947410;28;20431;-69
2021/11/17 11:47:21;;;;;;;19.00;12.70;;;8.70;99.90;;;;;;5007468;28;20429;-69
2021/11/17 11:49:49;;;;;;;20.37;13.50;;;8.80;99.90;;;;;;5011864;28;20422;-69
2021/11/17 11:52:23;;;;;;;21.17;13.87;;;8.80;99.90;;;;;;5008745;28;20464;-70
2021/11/17 11:54:55;;;;;;;22.07;14.93;;;8.70;99.90;;;;;;5008427;28;20420;-68
2021/11/17 11:57:24;;;;;;;24.00;14.07;;;8.70;99.90;;;;;;5001186;28;20437;-69
2021/11/17 11:59:56;;;;;;;22.13;14.30;;;8.70;99.90;;;;;;5006870;28;20533;-70
2021/11/17 12:02:23;;;;;;;21.30;14.50;;;8.60;99.90;;;;;;5000139;28;20525;-70
2021/11/17 12:04:54;;;;;;;24.30;14.50;;;8.70;99.90;;;;;;5009720;28;20417;-70
2021/11/17 12:07:27;;;;;;;21.50;14.30;;;8.70;99.90;;;;;;4999565;28;20430;-70
2021/11/17 12:10:04;;;;;;;25.47;14.93;;;8.80;99.90;;;;;;4993369;28;20496;-69
2021/11/17 12:12:35;;;;;;;25.75;18.42;;;8.70;99.90;;;;;;4998802;28;20469;-69
2021/11/17 12:15:23;;;;;;;24.80;16.60;;;8.80;99.90;;;;;;5000534;28;20207;-69
2021/11/17 12:18:03;;;;;;;28.80;16.50;;;8.80;99.90;;;;;;4995741;28;20455;-69
2021/11/17 12:20:34;;;;;;;28.20;17.50;;;8.80;99.90;;;;;;5004362;28;20485;-69
2021/11/17 12:23:22;;;;;;;23.23;16.07;;;8.80;99.90;;;;;;5006383;28;20544;-70
2021/11/17 12:26:10;;;;;;;27.17;15.07;;;8.90;99.90;;;;;;5002245;28;20457;-70
2021/11/17 12:28:49;;;;;;;24.60;17.00;;;8.80;99.90;;;;;;5008718;28;20453;-70
2021/11/17 12:31:39;;;;;;;23.90;16.17;;;8.80;99.90;;;;;;5013631;28;20496;-70
2021/11/17 12:34:27;;;;;;;25.00;15.40;;;8.80;99.90;;;;;;5015995;28;20454;-71
2021/11/17 12:37:04;;;;;;;30.30;16.83;;;8.70;99.90;;;;;;5008145;28;20501;-69
2021/11/17 12:39:33;;;;;;;23.60;15.20;;;8.70;99.90;;;;;;5006864;28;20445;-70
2021/11/17 12:42:03;;;;;;;27.60;17.30;;;8.70;99.90;;;;;;4999874;28;20493;-69
2021/11/17 12:44:33;;;;;;;25.03;16.97;;;8.60;99.90;;;;;;5003740;28;20443;-70
2021/11/17 12:47:13;;;;;;;31.80;17.10;;;8.70;99.90;;;;;;5006846;28;20545;-69
2021/11/17 12:50:07;;;;;;;29.53;17.70;;;8.80;99.90;;;;;;5007735;28;20520;-70
2021/11/17 12:52:44;;;;;;;30.23;18.40;;;8.70;99.90;;;;;;5004243;28;20443;-70
2021/11/17 12:55:09;;;;;;;27.20;17.33;;;8.80;99.90;;;;;;4998498;28;20571;-68
2021/11/17 12:57:43;;;;;;;28.47;18.07;;;8.80;99.90;;;;;;5023793;28;20473;-69
2021/11/17 13:00:11;;;;;;;28.43;17.87;;;8.80;99.90;;;;;;5008669;28;20284;-69
2021/11/17 13:02:46;;;;;;;26.73;17.57;;;8.70;99.90;;;;;;5008278;28;20464;-68
2021/11/17 13:05:23;;;;;;;26.40;16.77;;;8.80;99.90;;;;;;5004300;28;20442;-68
2021/11/17 13:08:02;;;;;;;22.07;14.80;;;8.80;99.90;;;;;;4992833;28;20485;-69
2021/11/17 13:10:34;;;;;;;28.40;16.20;;;8.80;99.90;;;;;;5008157;28;20437;-70
2021/11/17 13:13:24;;;;;;;28.00;16.70;;;8.80;99.90;;;;;;5007201;28;20460;-68
2021/11/17 13:15:59;;;;;;;25.57;16.13;;;8.80;99.90;;;;;;5003497;28;20432;-69
2021/11/17 13:18:55;;;;;;;24.87;15.43;;;8.80;99.90;;;;;;5006553;28;20473;-70
2021/11/17 13:21:21;;;;;;;21.93;13.60;;;8.80;99.90;;;;;;5007197;28;20471;-69
2021/11/17 13:24:28;;;;;;;19.00;13.30;;;8.70;99.90;;;;;;5014639;28;21081;-69
2021/11/17 13:27:07;;;;;;;18.50;12.90;;;8.70;99.90;;;;;;5006391;28;20550;-69
2021/11/17 13:30:08;;;;;;;18.70;12.60;;;8.80;99.90;;;;;;5007854;28;20449;-68
2021/11/17 13:32:37;;;;;;;18.40;12.40;;;8.90;99.90;;;;;;4974159;28;20454;-68
2021/11/17 13:35:27;;;;;;;17.30;12.57;;;9.00;99.90;;;;;;5025422;28;20455;-68
2021/11/17 13:38:14;;;;;;;13.63;10.20;;;9.10;99.90;;;;;;4994133;28;21001;-69
2021/11/17 13:40:41;;;;;;;14.47;8.70;;;9.10;99.90;;;;;;5006750;28;20886;-68
2021/11/17 13:43:08;;;;;;;14.57;9.83;;;9.20;99.90;;;;;;5007525;28;20460;-69
2021/11/17 13:45:34;;;;;;;16.03;10.80;;;9.20;99.90;;;;;;5008338;28;20507;-69
2021/11/17 13:48:00;;;;;;;12.53;9.10;;;9.20;99.90;;;;;;5011008;28;20446;-70
2021/11/17 13:50:30;;;;;;;12.50;10.50;;;9.10;99.90;;;;;;5002574;28;20441;-71
2021/11/17 13:52:57;;;;;;;11.53;9.70;;;9.10;99.90;;;;;;5018792;28;20232;-71
2021/11/17 13:55:27;;;;;;;15.33;11.30;;;9.10;99.90;;;;;;5030632;28;20952;-68
2021/11/17 13:57:53;;;;;;;12.93;9.67;;;9.10;99.90;;;;;;5010659;28;20468;-68
2021/11/17 14:00:21;;;;;;;12.47;9.80;;;9.10;99.90;;;;;;5008318;28;21165;-69
2021/11/17 14:02:48;;;;;;;14.50;10.37;;;9.10;99.90;;;;;;5010751;28;20504;-69
2021/11/17 14:05:15;;;;;;;15.17;11.17;;;9.10;99.90;;;;;;5010839;28;20450;-71
2021/11/17 14:07:42;;;;;;;16.97;10.67;;;9.00;99.90;;;;;;4999473;28;20442;-71
2021/11/17 14:10:09;;;;;;;18.13;12.37;;;9.10;99.90;;;;;;5010579;28;20445;-71
2021/11/17 14:12:36;;;;;;;16.90;12.30;;;9.10;99.90;;;;;;5013265;28;20456;-70
2021/11/17 14:15:04;;;;;;;19.50;14.03;;;9.10;99.90;;;;;;5009460;28;20537;-69
2021/11/17 14:17:29;;;;;;;21.33;12.83;;;9.10;99.90;;;;;;5015639;28;20436;-70
2021/11/17 14:19:55;;;;;;;29.67;15.77;;;9.10;99.90;;;;;;5013644;28;20797;-71
2021/11/17 14:22:20;;;;;;;24.30;14.90;;;9.00;99.90;;;;;;5019954;28;20208;-71
2021/11/17 14:24:46;;;;;;;26.40;15.70;;;9.10;99.90;;;;;;5017436;28;20206;-71
2021/11/17 14:27:13;;;;;;;26.53;16.13;;;9.10;99.90;;;;;;5020469;28;20201;-71
2021/11/17 14:30:00;;;;;;;30.87;18.20;;;9.00;99.90;;;;;;5021689;28;20199;-70
2021/11/17 14:32:33;;;;;;;28.93;17.07;;;9.00;99.90;;;;;;5024783;28;20492;-69
2021/11/17 14:35:00;;;;;;;30.50;17.40;;;9.10;99.90;;;;;;5026495;28;20923;-69
2021/11/17 14:37:27;;;;;;;29.50;17.97;;;9.10;99.90;;;;;;5002084;28;20447;-69
2021/11/17 14:39:53;;;;;;;29.20;18.30;;;9.00;99.90;;;;;;5012137;28;20466;-71
2021/11/17 14:42:18;;;;;;;36.80;18.70;;;9.10;99.90;;;;;;5014121;28;20453;-70
2021/11/17 14:44:44;;;;;;;33.20;19.47;;;9.10;99.90;;;;;;5017231;28;20333;-69
2021/11/17 14:47:11;;;;;;;35.50;20.07;;;9.20;99.90;;;;;;5030804;28;20201;-69
2021/11/17 14:49:37;;;;;;;35.63;20.60;;;9.20;99.90;;;;;;5025117;28;20577;-68
2021/11/17 14:52:08;;;;;;;32.90;20.70;;;9.20;99.90;;;;;;5028593;28;20447;-69
2021/11/17 14:54:34;;;;;;;38.17;20.17;;;9.20;99.90;;;;;;5020825;28;20462;-67
2021/11/17 14:57:00;;;;;;;45.60;20.53;;;9.30;99.90;;;;;;5016287;28;20601;-70
2021/11/17 14:59:26;;;;;;;43.03;21.60;;;9.20;99.90;;;;;;5024619;28;21139;-69
2021/11/17 15:01:56;;;;;;;35.23;20.43;;;9.10;99.90;;;;;;5005018;28;20473;-70
2021/11/17 15:04:21;;;;;;;38.43;21.53;;;9.10;99.90;;;;;;5007514;28;20473;-69
2021/11/17 15:06:47;;;;;;;37.20;21.03;;;9.20;99.90;;;;;;4998260;28;20454;-69
2021/11/17 15:09:14;;;;;;;35.30;21.00;;;9.20;99.90;;;;;;5006266;28;20218;-69
2021/11/17 15:12:00;;;;;;;44.97;22.17;;;9.20;99.90;;;;;;5009342;28;20573;-69
2021/11/17 15:14:27;;;;;;;39.57;22.00;;;9.20;99.90;;;;;;5009287;28;20834;-68
2021/11/17 15:16:54;;;;;;;49.00;23.00;;;9.20;99.90;;;;;;5010523;28;20444;-68
2021/11/17 15:19:19;;;;;;;40.50;22.87;;;9.20;99.90;;;;;;5009987;28;20583;-67
2021/11/17 15:21:46;;;;;;;37.30;20.87;;;9.10;99.90;;;;;;5010292;28;20512;-67
2021/11/17 15:24:12;;;;;;;43.47;23.63;;;9.20;99.90;;;;;;5016024;28;20824;-70
2021/11/17 15:26:54;;;;;;;35.80;22.53;;;9.20;99.90;;;;;;5018565;28;20240;-69
2021/11/17 15:29:20;;;;;;;37.07;21.77;;;9.20;99.90;;;;;;5010722;28;20582;-70
2021/11/17 15:31:46;;;;;;;46.77;24.03;;;9.20;99.90;;;;;;5010257;28;20500;-69
2021/11/17 15:34:12;;;;;;;41.03;24.35;;;9.20;99.90;;;;;;5016540;28;20534;-68
2021/11/17 15:36:38;;;;;;;39.83;22.20;;;9.30;99.90;;;;;;5008280;28;20211;-69
2021/11/17 15:39:06;;;;;;;40.63;22.37;;;9.40;99.90;;;;;;5011034;28;20533;-69
2021/11/17 15:41:32;;;;;;;38.90;22.57;;;9.30;99.90;;;;;;5010920;28;20467;-70
2021/11/17 15:43:58;;;;;;;44.47;24.23;;;9.40;99.90;;;;;;5010019;28;20965;-68
2021/11/17 15:46:26;;;;;;;37.87;22.37;;;9.40;99.90;;;;;;5008032;28;20433;-69
2021/11/17 15:48:52;;;;;;;44.97;22.63;;;9.50;99.90;;;;;;5010266;28;20437;-69